sensor_id;sensor_type;location;lat;lon;timestamp;pressure;altitude;pressure_sealevel;temperature;humidity
40612;BME280;26317;44.894;20.286;2023-09-30T00:01:17;101221.53;;;18.16;76.64
40612;BME280;26317;44.894;20.286;2023-09-30T00:03:53;101223.16;;;18.17;76.78
40612;BME280;26317;44.894;20.286;2023-09-30T00:06:49;101227.38;;;18.10;77.54
40612;BME280;26317;44.894;20.286;2023-09-30T00:09:25;101225.38;;;18.02;78.83
40612;BME280;26317;44.894;20.286;2023-09-30T00:12:09;101231.00;;;17.91;79.04
40612;BME280;26317;44.894;20.286;2023-09-30T00:14:44;101221.56;;;17.89;79.46
40612;BME280;26317;44.894;20.286;2023-09-30T00:17:17;101220.56;;;17.85;80.07
40612;BME280;26317;44.894;20.286;2023-09-30T00:19:49;101225.91;;;17.90;79.48
40612;BME280;26317;44.894;20.286;2023-09-30T00:22:23;101226.00;;;17.85;79.89
40612;BME280;26317;44.894;20.286;2023-09-30T00:24:58;101225.81;;;17.81;79.96
40612;BME280;26317;44.894;20.286;2023-09-30T00:27:38;101206.91;;;17.63;80.80
40612;BME280;26317;44.894;20.286;2023-09-30T00:30:17;101227.81;;;17.76;80.19
40612;BME280;26317;44.894;20.286;2023-09-30T00:33:09;101226.50;;;17.73;79.68
40612;BME280;26317;44.894;20.286;2023-09-30T00:35:48;101220.38;;;17.68;79.63
40612;BME280;26317;44.894;20.286;2023-09-30T00:38:21;101216.94;;;17.62;79.92
40612;BME280;26317;44.894;20.286;2023-09-30T00:40:53;101227.78;;;17.62;79.81
40612;BME280;26317;44.894;20.286;2023-09-30T00:43:38;101224.16;;;17.53;79.37
40612;BME280;26317;44.894;20.286;2023-09-30T00:46:21;101226.56;;;17.55;79.25
40612;BME280;26317;44.894;20.286;2023-09-30T00:49:12;101224.38;;;17.57;78.29
40612;BME280;26317;44.894;20.286;2023-09-30T00:51:53;101221.88;;;17.60;78.29
40612;BME280;26317;44.894;20.286;2023-09-30T00:54:30;101221.56;;;17.62;77.38
40612;BME280;26317;44.894;20.286;2023-09-30T00:57:07;101215.47;;;17.70;77.14
40612;BME280;26317;44.894;20.286;2023-09-30T00:59:50;101216.56;;;17.69;77.39
40612;BME280;26317;44.894;20.286;2023-09-30T01:02:26;101211.34;;;17.72;76.63
40612;BME280;26317;44.894;20.286;2023-09-30T01:05:08;101211.13;;;17.69;76.79
40612;BME280;26317;44.894;20.286;2023-09-30T01:07:53;101219.19;;;17.74;76.49
40612;BME280;26317;44.894;20.286;2023-09-30T01:10:30;101215.16;;;17.71;76.65
40612;BME280;26317;44.894;20.286;2023-09-30T01:13:04;101211.03;;;17.74;76.47
40612;BME280;26317;44.894;20.286;2023-09-30T01:15:53;101217.47;;;17.78;76.91
40612;BME280;26317;44.894;20.286;2023-09-30T01:18:42;101208.53;;;17.77;76.83
40612;BME280;26317;44.894;20.286;2023-09-30T01:21:28;101201.56;;;17.71;76.54
40612;BME280;26317;44.894;20.286;2023-09-30T01:24:18;101202.91;;;17.74;76.53
40612;BME280;26317;44.894;20.286;2023-09-30T01:27:18;101215.25;;;17.80;76.39
40612;BME280;26317;44.894;20.286;2023-09-30T01:29:58;101205.00;;;17.77;76.76
40612;BME280;26317;44.894;20.286;2023-09-30T01:32:36;101209.91;;;17.75;76.80
40612;BME280;26317;44.894;20.286;2023-09-30T01:35:21;101212.81;;;17.78;77.03
40612;BME280;26317;44.894;20.286;2023-09-30T01:37:59;101209.91;;;17.75;77.85
40612;BME280;26317;44.894;20.286;2023-09-30T01:40:50;101203.09;;;17.64;77.92
40612;BME280;26317;44.894;20.286;2023-09-30T01:43:34;101216.03;;;17.67;78.15
40612;BME280;26317;44.894;20.286;2023-09-30T01:46:09;101213.13;;;17.63;77.60
40612;BME280;26317;44.894;20.286;2023-09-30T01:48:46;101213.34;;;17.67;78.49
40612;BME280;26317;44.894;20.286;2023-09-30T01:51:25;101209.13;;;17.61;78.50
40612;BME280;26317;44.894;20.286;2023-09-30T01:54:00;101204.06;;;17.54;78.74
40612;BME280;26317;44.894;20.286;2023-09-30T01:56:52;101209.59;;;17.49;78.36
40612;BME280;26317;44.894;20.286;2023-09-30T01:59:28;101200.22;;;17.41;78.49
40612;BME280;26317;44.894;20.286;2023-09-30T02:02:05;101199.22;;;17.37;78.08
40612;BME280;26317;44.894;20.286;2023-09-30T02:04:52;101200.91;;;17.33;77.82
40612;BME280;26317;44.894;20.286;2023-09-30T02:07:33;101208.56;;;17.31;78.05
40612;BME280;26317;44.894;20.286;2023-09-30T02:10:13;101200.59;;;17.21;77.81
40612;BME280;26317;44.894;20.286;2023-09-30T02:13:04;101197.56;;;17.09;78.23
40612;BME280;26317;44.894;20.286;2023-09-30T02:15:59;101217.34;;;17.10;78.43
40612;BME280;26317;44.894;20.286;2023-09-30T02:18:35;101227.47;;;17.04;78.12
40612;BME280;26317;44.894;20.286;2023-09-30T02:21:22;101215.13;;;16.98;77.75
40612;BME280;26317;44.894;20.286;2023-09-30T02:24:05;101215.19;;;16.93;78.03
40612;BME280;26317;44.894;20.286;2023-09-30T02:26:41;101223.41;;;16.88;78.41
40612;BME280;26317;44.894;20.286;2023-09-30T02:29:41;101215.13;;;16.79;78.65
40612;BME280;26317;44.894;20.286;2023-09-30T02:32:14;101210.09;;;16.73;79.06
40612;BME280;26317;44.894;20.286;2023-09-30T02:34:49;101224.94;;;16.75;79.24
40612;BME280;26317;44.894;20.286;2023-09-30T02:37:24;101220.47;;;16.66;80.36
40612;BME280;26317;44.894;20.286;2023-09-30T02:40:06;101225.41;;;16.64;80.35
40612;BME280;26317;44.894;20.286;2023-09-30T02:42:43;101218.44;;;16.58;81.14
40612;BME280;26317;44.894;20.286;2023-09-30T02:45:30;101189.00;;;16.32;81.90
40612;BME280;26317;44.894;20.286;2023-09-30T02:48:08;101211.53;;;16.46;81.94
40612;BME280;26317;44.894;20.286;2023-09-30T02:50:42;101212.13;;;16.43;81.92
40612;BME280;26317;44.894;20.286;2023-09-30T02:53:23;101203.50;;;16.41;82.70
40612;BME280;26317;44.894;20.286;2023-09-30T02:55:56;101215.34;;;16.45;82.95
40612;BME280;26317;44.894;20.286;2023-09-30T02:58:49;101206.72;;;16.43;82.91
40612;BME280;26317;44.894;20.286;2023-09-30T03:01:42;101196.19;;;16.42;82.89
40612;BME280;26317;44.894;20.286;2023-09-30T03:04:22;101212.63;;;16.45;82.83
40612;BME280;26317;44.894;20.286;2023-09-30T03:07:00;101206.72;;;16.43;82.94
40612;BME280;26317;44.894;20.286;2023-09-30T03:09:46;101205.09;;;16.42;82.65
40612;BME280;26317;44.894;20.286;2023-09-30T03:12:18;101210.53;;;16.42;83.11
40612;BME280;26317;44.894;20.286;2023-09-30T03:15:03;101211.03;;;16.44;82.80
40612;BME280;26317;44.894;20.286;2023-09-30T03:17:47;101197.66;;;16.34;82.64
40612;BME280;26317;44.894;20.286;2023-09-30T03:20:24;101204.59;;;16.40;82.91
40612;BME280;26317;44.894;20.286;2023-09-30T03:23:13;101217.13;;;16.36;82.55
40612;BME280;26317;44.894;20.286;2023-09-30T03:26:00;101209.06;;;16.31;82.54
40612;BME280;26317;44.894;20.286;2023-09-30T03:28:40;101205.91;;;16.24;83.24
40612;BME280;26317;44.894;20.286;2023-09-30T03:31:25;101212.22;;;16.20;83.25
40612;BME280;26317;44.894;20.286;2023-09-30T03:34:19;101202.31;;;16.10;83.76
40612;BME280;26317;44.894;20.286;2023-09-30T03:36:55;101202.59;;;16.08;84.22
40612;BME280;26317;44.894;20.286;2023-09-30T03:39:26;101200.75;;;16.04;84.18
40612;BME280;26317;44.894;20.286;2023-09-30T03:42:16;101195.56;;;15.89;84.70
40612;BME280;26317;44.894;20.286;2023-09-30T03:45:03;101208.00;;;15.90;84.86
40612;BME280;26317;44.894;20.286;2023-09-30T03:47:41;101213.41;;;15.90;85.26
40612;BME280;26317;44.894;20.286;2023-09-30T03:50:28;101215.56;;;15.88;84.69
40612;BME280;26317;44.894;20.286;2023-09-30T03:53:07;101218.22;;;15.93;83.95
40612;BME280;26317;44.894;20.286;2023-09-30T03:55:55;101213.41;;;15.90;84.00
40612;BME280;26317;44.894;20.286;2023-09-30T03:58:37;101214.50;;;15.89;83.65
40612;BME280;26317;44.894;20.286;2023-09-30T04:01:14;101226.13;;;15.89;83.57
40612;BME280;26317;44.894;20.286;2023-09-30T04:03:59;101218.88;;;15.85;83.57
40612;BME280;26317;44.894;20.286;2023-09-30T04:06:38;101215.06;;;15.86;83.22
40612;BME280;26317;44.894;20.286;2023-09-30T04:09:13;101230.78;;;15.84;83.10
40612;BME280;26317;44.894;20.286;2023-09-30T04:11:51;101219.47;;;15.82;83.39
40612;BME280;26317;44.894;20.286;2023-09-30T04:14:47;101226.75;;;15.81;83.71
40612;BME280;26317;44.894;20.286;2023-09-30T04:17:20;101213.06;;;15.73;83.72
40612;BME280;26317;44.894;20.286;2023-09-30T04:20:09;101219.56;;;15.72;83.92
40612;BME280;26317;44.894;20.286;2023-09-30T04:22:53;101221.47;;;15.71;83.88
40612;BME280;26317;44.894;20.286;2023-09-30T04:25:28;101234.16;;;15.71;84.03
40612;BME280;26317;44.894;20.286;2023-09-30T04:28:30;101233.66;;;15.69;84.70
40612;BME280;26317;44.894;20.286;2023-09-30T04:31:05;101230.44;;;15.67;84.38
40612;BME280;26317;44.894;20.286;2023-09-30T04:33:50;101242.06;;;15.67;84.45
40612;BME280;26317;44.894;20.286;2023-09-30T04:36:33;101245.03;;;15.65;84.41
40612;BME280;26317;44.894;20.286;2023-09-30T04:39:14;101243.72;;;15.63;84.63
40612;BME280;26317;44.894;20.286;2023-09-30T04:41:50;101251.03;;;15.62;84.52
40612;BME280;26317;44.894;20.286;2023-09-30T04:44:26;101234.13;;;15.52;84.27
40612;BME280;26317;44.894;20.286;2023-09-30T04:47:01;101249.72;;;15.60;84.52
40612;BME280;26317;44.894;20.286;2023-09-30T04:49:40;101236.81;;;15.52;84.85
40612;BME280;26317;44.894;20.286;2023-09-30T04:52:19;101252.69;;;15.58;84.91
40612;BME280;26317;44.894;20.286;2023-09-30T04:55:00;101249.53;;;15.51;85.13
40612;BME280;26317;44.894;20.286;2023-09-30T04:57:37;101261.38;;;15.55;85.31
40612;BME280;26317;44.894;20.286;2023-09-30T05:00:19;101255.97;;;15.55;85.37
40612;BME280;26317;44.894;20.286;2023-09-30T05:02:55;101255.16;;;15.55;85.72
40612;BME280;26317;44.894;20.286;2023-09-30T05:05:36;101261.66;;;15.54;85.60
40612;BME280;26317;44.894;20.286;2023-09-30T05:08:09;101238.78;;;15.41;85.44
40612;BME280;26317;44.894;20.286;2023-09-30T05:10:51;101263.00;;;15.56;86.00
40612;BME280;26317;44.894;20.286;2023-09-30T05:13:25;101275.19;;;15.54;86.09
40612;BME280;26317;44.894;20.286;2023-09-30T05:16:15;101282.22;;;15.55;85.95
40612;BME280;26317;44.894;20.286;2023-09-30T05:18:54;101279.53;;;15.50;85.85
40612;BME280;26317;44.894;20.286;2023-09-30T05:21:30;101284.69;;;15.51;86.00
40612;BME280;26317;44.894;20.286;2023-09-30T05:24:07;101270.66;;;15.44;86.27
40612;BME280;26317;44.894;20.286;2023-09-30T05:26:54;101283.28;;;15.54;87.20
40612;BME280;26317;44.894;20.286;2023-09-30T05:29:35;101273.88;;;15.46;87.09
40612;BME280;26317;44.894;20.286;2023-09-30T05:32:11;101295.44;;;15.56;87.25
40612;BME280;26317;44.894;20.286;2023-09-30T05:34:57;101283.59;;;15.52;87.14
40612;BME280;26317;44.894;20.286;2023-09-30T05:37:35;101297.59;;;15.59;87.39
40612;BME280;26317;44.894;20.286;2023-09-30T05:40:25;101292.69;;;15.61;88.04
40612;BME280;26317;44.894;20.286;2023-09-30T05:43:11;101293.22;;;15.63;88.23
40612;BME280;26317;44.894;20.286;2023-09-30T05:45:51;101283.47;;;15.62;88.68
40612;BME280;26317;44.894;20.286;2023-09-30T05:48:29;101297.19;;;15.71;89.93
40612;BME280;26317;44.894;20.286;2023-09-30T05:51:07;101278.06;;;15.62;89.95
40612;BME280;26317;44.894;20.286;2023-09-30T05:53:55;101296.28;;;15.81;90.60
40612;BME280;26317;44.894;20.286;2023-09-30T05:56:28;101300.84;;;15.85;90.97
40612;BME280;26317;44.894;20.286;2023-09-30T05:59:09;101303.25;;;15.87;91.73
40612;BME280;26317;44.894;20.286;2023-09-30T06:01:53;101309.19;;;15.89;92.02
40612;BME280;26317;44.894;20.286;2023-09-30T06:04:29;101313.19;;;15.91;92.73
40612;BME280;26317;44.894;20.286;2023-09-30T06:07:10;101310.81;;;15.90;93.29
40612;BME280;26317;44.894;20.286;2023-09-30T06:09:54;101314.25;;;15.95;93.73
40612;BME280;26317;44.894;20.286;2023-09-30T06:12:39;101311.53;;;15.95;93.80
40612;BME280;26317;44.894;20.286;2023-09-30T06:15:24;101311.06;;;16.12;93.61
40612;BME280;26317;44.894;20.286;2023-09-30T06:17:59;101321.25;;;16.20;93.70
40612;BME280;26317;44.894;20.286;2023-09-30T06:20:43;101288.91;;;16.10;92.44
40612;BME280;26317;44.894;20.286;2023-09-30T06:23:29;101306.75;;;16.35;92.50
40612;BME280;26317;44.894;20.286;2023-09-30T06:26:07;101312.28;;;16.48;92.42
40612;BME280;26317;44.894;20.286;2023-09-30T06:28:48;101320.81;;;16.61;91.50
40612;BME280;26317;44.894;20.286;2023-09-30T06:31:27;101327.75;;;16.67;90.44
40612;BME280;26317;44.894;20.286;2023-09-30T06:34:04;101326.53;;;16.78;89.59
40612;BME280;26317;44.894;20.286;2023-09-30T06:36:43;101331.19;;;16.91;88.95
40612;BME280;26317;44.894;20.286;2023-09-30T06:39:23;101334.03;;;16.99;88.56
40612;BME280;26317;44.894;20.286;2023-09-30T06:42:05;101337.44;;;17.10;87.05
40612;BME280;26317;44.894;20.286;2023-09-30T06:44:41;101322.69;;;17.16;87.69
40612;BME280;26317;44.894;20.286;2023-09-30T06:47:42;101330.66;;;17.26;87.90
40612;BME280;26317;44.894;20.286;2023-09-30T06:50:14;101338.78;;;17.26;87.51
40612;BME280;26317;44.894;20.286;2023-09-30T06:52:59;101332.41;;;17.36;86.74
40612;BME280;26317;44.894;20.286;2023-09-30T06:55:34;101342.59;;;17.44;87.61
40612;BME280;26317;44.894;20.286;2023-09-30T06:58:12;101337.16;;;17.44;88.18
40612;BME280;26317;44.894;20.286;2023-09-30T07:00:56;101345.91;;;17.55;87.04
40612;BME280;26317;44.894;20.286;2023-09-30T07:03:37;101343.72;;;17.57;86.79
40612;BME280;26317;44.894;20.286;2023-09-30T07:06:24;101337.78;;;17.55;87.91
40612;BME280;26317;44.894;20.286;2023-09-30T07:09:04;101318.59;;;17.51;87.62
40612;BME280;26317;44.894;20.286;2023-09-30T07:11:38;101349.44;;;17.74;87.01
40612;BME280;26317;44.894;20.286;2023-09-30T07:14:15;101333.34;;;17.77;85.87
40612;BME280;26317;44.894;20.286;2023-09-30T07:16:50;101298.84;;;17.64;85.20
40612;BME280;26317;44.894;20.286;2023-09-30T07:19:33;101350.28;;;18.02;86.46
40612;BME280;26317;44.894;20.286;2023-09-30T07:22:09;101343.03;;;18.11;85.72
40612;BME280;26317;44.894;20.286;2023-09-30T07:25:10;101334.09;;;18.10;85.67
40612;BME280;26317;44.894;20.286;2023-09-30T07:27:49;101338.72;;;18.23;85.02
40612;BME280;26317;44.894;20.286;2023-09-30T07:30:24;101329.16;;;18.26;85.94
40612;BME280;26317;44.894;20.286;2023-09-30T07:33:02;101344.53;;;18.44;85.28
40612;BME280;26317;44.894;20.286;2023-09-30T07:35:45;101335.38;;;18.54;84.35
40612;BME280;26317;44.894;20.286;2023-09-30T07:38:21;101350.88;;;18.67;84.81
40612;BME280;26317;44.894;20.286;2023-09-30T07:41:02;101356.56;;;18.79;83.13
40612;BME280;26317;44.894;20.286;2023-09-30T07:43:33;101359.28;;;18.93;81.66
40612;BME280;26317;44.894;20.286;2023-09-30T07:46:07;101349.81;;;18.90;81.65
40612;BME280;26317;44.894;20.286;2023-09-30T07:48:40;101358.91;;;19.08;81.94
40612;BME280;26317;44.894;20.286;2023-09-30T07:51:29;101367.84;;;19.22;80.69
40612;BME280;26317;44.894;20.286;2023-09-30T07:54:09;101357.53;;;19.33;79.95
40612;BME280;26317;44.894;20.286;2023-09-30T07:57:01;101360.63;;;19.40;80.51
40612;BME280;26317;44.894;20.286;2023-09-30T07:59:37;101364.72;;;19.51;79.65
40612;BME280;26317;44.894;20.286;2023-09-30T08:02:11;101353.59;;;19.61;78.53
40612;BME280;26317;44.894;20.286;2023-09-30T08:04:51;101358.97;;;19.74;77.90
40612;BME280;26317;44.894;20.286;2023-09-30T08:07:41;101364.94;;;19.85;78.01
40612;BME280;26317;44.894;20.286;2023-09-30T08:10:23;101366.41;;;19.91;77.36
40612;BME280;26317;44.894;20.286;2023-09-30T08:13:08;101383.16;;;20.07;76.99
40612;BME280;26317;44.894;20.286;2023-09-30T08:15:42;101376.00;;;20.19;75.44
40612;BME280;26317;44.894;20.286;2023-09-30T08:18:19;101355.31;;;20.18;76.39
40612;BME280;26317;44.894;20.286;2023-09-30T08:20:57;101380.56;;;20.33;73.26
40612;BME280;26317;44.894;20.286;2023-09-30T08:23:50;101369.88;;;20.45;72.71
40612;BME280;26317;44.894;20.286;2023-09-30T08:26:31;101366.81;;;20.55;73.68
40612;BME280;26317;44.894;20.286;2023-09-30T08:29:08;101370.53;;;20.67;71.50
40612;BME280;26317;44.894;20.286;2023-09-30T08:31:57;101371.69;;;20.75;72.28
40612;BME280;26317;44.894;20.286;2023-09-30T08:34:35;101365.91;;;20.77;71.36
40612;BME280;26317;44.894;20.286;2023-09-30T08:37:10;101373.31;;;20.93;70.82
40612;BME280;26317;44.894;20.286;2023-09-30T08:39:51;101354.06;;;20.98;70.34
40612;BME280;26317;44.894;20.286;2023-09-30T08:42:39;101363.53;;;21.09;70.83
40612;BME280;26317;44.894;20.286;2023-09-30T08:45:18;101368.06;;;21.23;70.15
40612;BME280;26317;44.894;20.286;2023-09-30T08:47:59;101328.88;;;21.10;69.02
40612;BME280;26317;44.894;20.286;2023-09-30T08:50:41;101365.63;;;21.47;68.14
40612;BME280;26317;44.894;20.286;2023-09-30T08:53:21;101360.66;;;21.58;68.33
40612;BME280;26317;44.894;20.286;2023-09-30T08:56:16;101353.41;;;21.62;67.12
40612;BME280;26317;44.894;20.286;2023-09-30T08:59:04;101360.91;;;21.82;67.49
40612;BME280;26317;44.894;20.286;2023-09-30T09:01:40;101360.72;;;21.95;65.08
40612;BME280;26317;44.894;20.286;2023-09-30T09:04:19;101358.13;;;22.08;64.84
40612;BME280;26317;44.894;20.286;2023-09-30T09:07:04;101352.28;;;22.18;63.09
40612;BME280;26317;44.894;20.286;2023-09-30T09:09:38;101353.34;;;22.25;62.01
40612;BME280;26317;44.894;20.286;2023-09-30T09:12:26;101360.88;;;22.37;62.13
40612;BME280;26317;44.894;20.286;2023-09-30T09:15:00;101350.22;;;22.44;62.33
40612;BME280;26317;44.894;20.286;2023-09-30T09:17:45;101352.09;;;22.52;58.92
40612;BME280;26317;44.894;20.286;2023-09-30T09:20:28;101347.81;;;22.63;60.52
40612;BME280;26317;44.894;20.286;2023-09-30T09:23:12;101334.75;;;22.77;59.25
40612;BME280;26317;44.894;20.286;2023-09-30T09:26:29;101337.72;;;22.84;60.44
40612;BME280;26317;44.894;20.286;2023-09-30T09:29:14;101329.66;;;22.88;60.47
40612;BME280;26317;44.894;20.286;2023-09-30T09:32:09;101331.72;;;23.12;56.75
40612;BME280;26317;44.894;20.286;2023-09-30T09:35:01;101327.91;;;23.25;57.81
40612;BME280;26317;44.894;20.286;2023-09-30T09:37:41;101330.34;;;23.38;56.74
40612;BME280;26317;44.894;20.286;2023-09-30T09:40:27;101328.06;;;23.41;53.98
40612;BME280;26317;44.894;20.286;2023-09-30T09:43:19;101317.56;;;23.43;54.60
40612;BME280;26317;44.894;20.286;2023-09-30T09:46:16;101309.78;;;23.53;53.36
40612;BME280;26317;44.894;20.286;2023-09-30T09:48:59;101316.63;;;23.71;55.15
40612;BME280;26317;44.894;20.286;2023-09-30T09:51:40;101318.50;;;23.79;55.16
40612;BME280;26317;44.894;20.286;2023-09-30T09:54:32;101317.34;;;23.93;53.96
40612;BME280;26317;44.894;20.286;2023-09-30T09:57:13;101285.16;;;23.90;51.55
40612;BME280;26317;44.894;20.286;2023-09-30T10:00:05;101306.16;;;24.10;51.95
40612;BME280;26317;44.894;20.286;2023-09-30T10:02:55;101297.41;;;24.04;51.57
40612;BME280;26317;44.894;20.286;2023-09-30T10:05:32;101294.53;;;24.13;48.65
40612;BME280;26317;44.894;20.286;2023-09-30T10:08:11;101305.28;;;24.30;47.88
40612;BME280;26317;44.894;20.286;2023-09-30T10:11:00;101298.88;;;24.26;49.69
40612;BME280;26317;44.894;20.286;2023-09-30T10:13:56;101291.44;;;24.39;48.51
40612;BME280;26317;44.894;20.286;2023-09-30T10:16:48;101290.97;;;24.49;48.74
40612;BME280;26317;44.894;20.286;2023-09-30T10:20:04;101291.59;;;24.70;48.51
40612;BME280;26317;44.894;20.286;2023-09-30T10:23:23;101285.53;;;24.77;45.30
40612;BME280;26317;44.894;20.286;2023-09-30T10:26:26;101285.97;;;24.91;45.20
40612;BME280;26317;44.894;20.286;2023-09-30T10:29:10;101277.22;;;25.01;45.76
40612;BME280;26317;44.894;20.286;2023-09-30T10:31:56;101275.13;;;25.10;42.89
40612;BME280;26317;44.894;20.286;2023-09-30T10:34:36;101268.56;;;25.14;43.24
40612;BME280;26317;44.894;20.286;2023-09-30T10:37:23;101271.63;;;25.25;42.93
40612;BME280;26317;44.894;20.286;2023-09-30T10:40:02;101269.88;;;25.33;43.09
40612;BME280;26317;44.894;20.286;2023-09-30T10:42:51;101268.34;;;25.35;41.51
40612;BME280;26317;44.894;20.286;2023-09-30T10:45:44;101254.19;;;25.33;43.13
40612;BME280;26317;44.894;20.286;2023-09-30T10:48:37;101257.03;;;25.52;42.04
40612;BME280;26317;44.894;20.286;2023-09-30T10:51:21;101248.72;;;25.64;41.14
40612;BME280;26317;44.894;20.286;2023-09-30T10:53:58;101242.97;;;25.70;41.92
40612;BME280;26317;44.894;20.286;2023-09-30T10:56:33;101247.63;;;25.85;42.03
40612;BME280;26317;44.894;20.286;2023-09-30T10:59:06;101252.97;;;25.93;41.68
40612;BME280;26317;44.894;20.286;2023-09-30T11:01:38;101244.53;;;26.02;40.96
40612;BME280;26317;44.894;20.286;2023-09-30T11:04:20;101234.78;;;26.04;40.14
40612;BME280;26317;44.894;20.286;2023-09-30T11:07:11;101226.03;;;26.18;39.69
40612;BME280;26317;44.894;20.286;2023-09-30T11:09:42;101241.00;;;26.36;39.66
40612;BME280;26317;44.894;20.286;2023-09-30T11:12:18;101228.19;;;26.44;38.48
40612;BME280;26317;44.894;20.286;2023-09-30T11:15:03;101230.88;;;26.40;39.65
40612;BME280;26317;44.894;20.286;2023-09-30T11:17:39;101236.66;;;26.35;37.81
40612;BME280;26317;44.894;20.286;2023-09-30T11:20:23;101226.69;;;26.46;38.18
40612;BME280;26317;44.894;20.286;2023-09-30T11:23:08;101226.81;;;26.34;38.76
40612;BME280;26317;44.894;20.286;2023-09-30T11:25:47;101222.69;;;26.25;36.26
40612;BME280;26317;44.894;20.286;2023-09-30T11:28:21;101214.53;;;26.13;36.72
40612;BME280;26317;44.894;20.286;2023-09-30T11:31:17;101225.72;;;26.04;36.96
40612;BME280;26317;44.894;20.286;2023-09-30T11:33:54;101216.25;;;25.86;35.50
40612;BME280;26317;44.894;20.286;2023-09-30T11:36:42;101206.34;;;25.66;37.14
40612;BME280;26317;44.894;20.286;2023-09-30T11:39:30;101212.75;;;25.70;35.74
40612;BME280;26317;44.894;20.286;2023-09-30T11:42:16;101204.22;;;25.75;35.32
40612;BME280;26317;44.894;20.286;2023-09-30T11:44:54;101209.53;;;25.83;35.28
40612;BME280;26317;44.894;20.286;2023-09-30T11:47:32;101208.72;;;25.83;35.27
40612;BME280;26317;44.894;20.286;2023-09-30T11:50:08;101199.91;;;25.93;35.29
40612;BME280;26317;44.894;20.286;2023-09-30T11:52:50;101196.63;;;26.03;33.65
40612;BME280;26317;44.894;20.286;2023-09-30T11:55:43;101202.44;;;26.17;35.80
40612;BME280;26317;44.894;20.286;2023-09-30T11:58:19;101202.41;;;26.33;32.83
40612;BME280;26317;44.894;20.286;2023-09-30T12:00:54;101193.56;;;26.43;33.05
40612;BME280;26317;44.894;20.286;2023-09-30T12:03:28;101184.81;;;26.57;32.62
40612;BME280;26317;44.894;20.286;2023-09-30T12:06:24;101194.97;;;26.72;33.59
40612;BME280;26317;44.894;20.286;2023-09-30T12:09:16;101192.34;;;26.79;31.51
40612;BME280;26317;44.894;20.286;2023-09-30T12:11:55;101185.41;;;26.85;33.07
40612;BME280;26317;44.894;20.286;2023-09-30T12:14:32;101186.53;;;27.03;32.58
40612;BME280;26317;44.894;20.286;2023-09-30T12:17:10;101176.97;;;26.97;34.13
40612;BME280;26317;44.894;20.286;2023-09-30T12:19:56;101170.13;;;27.10;33.56
40612;BME280;26317;44.894;20.286;2023-09-30T12:22:34;101180.34;;;27.32;34.45
40612;BME280;26317;44.894;20.286;2023-09-30T12:25:17;101141.91;;;27.17;32.39
40612;BME280;26317;44.894;20.286;2023-09-30T12:27:54;101170.00;;;27.49;33.16
40612;BME280;26317;44.894;20.286;2023-09-30T12:30:33;101170.91;;;27.56;32.55
40612;BME280;26317;44.894;20.286;2023-09-30T12:33:11;101174.38;;;27.76;31.65
40612;BME280;26317;44.894;20.286;2023-09-30T12:35:45;101153.81;;;27.70;31.02
40612;BME280;26317;44.894;20.286;2023-09-30T12:38:18;101161.81;;;27.78;30.82
40612;BME280;26317;44.894;20.286;2023-09-30T12:40:52;101168.53;;;27.81;30.69
40612;BME280;26317;44.894;20.286;2023-09-30T12:43:43;101164.47;;;27.71;32.30
40612;BME280;26317;44.894;20.286;2023-09-30T12:46:19;101165.00;;;27.54;31.70
40612;BME280;26317;44.894;20.286;2023-09-30T12:48:51;101156.00;;;27.34;31.06
40612;BME280;26317;44.894;20.286;2023-09-30T12:51:30;101145.69;;;27.31;31.19
40612;BME280;26317;44.894;20.286;2023-09-30T12:54:08;101147.44;;;27.43;31.85
40612;BME280;26317;44.894;20.286;2023-09-30T12:56:59;101154.72;;;27.51;30.87
40612;BME280;26317;44.894;20.286;2023-09-30T12:59:45;101152.16;;;27.65;30.67
40612;BME280;26317;44.894;20.286;2023-09-30T13:02:27;101141.50;;;27.64;31.41
40612;BME280;26317;44.894;20.286;2023-09-30T13:05:04;101124.53;;;27.62;30.54
40612;BME280;26317;44.894;20.286;2023-09-30T13:07:39;101134.66;;;27.80;30.41
40612;BME280;26317;44.894;20.286;2023-09-30T13:10:19;101125.38;;;27.92;30.59
40612;BME280;26317;44.894;20.286;2023-09-30T13:12:59;101127.41;;;27.99;30.48
40612;BME280;26317;44.894;20.286;2023-09-30T13:15:39;101121.41;;;27.93;29.34
40612;BME280;26317;44.894;20.286;2023-09-30T13:18:21;101124.38;;;28.07;29.41
40612;BME280;26317;44.894;20.286;2023-09-30T13:20:56;101129.06;;;28.03;29.42
40612;BME280;26317;44.894;20.286;2023-09-30T13:23:33;101121.31;;;28.12;30.34
40612;BME280;26317;44.894;20.286;2023-09-30T13:26:12;101115.81;;;28.12;29.24
40612;BME280;26317;44.894;20.286;2023-09-30T13:28:56;101115.63;;;28.31;30.34
40612;BME280;26317;44.894;20.286;2023-09-30T13:31:43;101113.63;;;28.28;28.46
40612;BME280;26317;44.894;20.286;2023-09-30T13:34:20;101112.16;;;28.34;28.50
40612;BME280;26317;44.894;20.286;2023-09-30T13:37:07;101097.34;;;28.16;29.25
40612;BME280;26317;44.894;20.286;2023-09-30T13:39:47;101113.06;;;28.12;30.54
40612;BME280;26317;44.894;20.286;2023-09-30T13:42:20;101109.00;;;28.06;31.11
40612;BME280;26317;44.894;20.286;2023-09-30T13:45:01;101105.28;;;27.92;31.43
40612;BME280;26317;44.894;20.286;2023-09-30T13:47:49;101111.28;;;27.71;31.62
40612;BME280;26317;44.894;20.286;2023-09-30T13:50:31;101103.88;;;27.49;32.13
40612;BME280;26317;44.894;20.286;2023-09-30T13:53:05;101109.03;;;27.27;32.93
40612;BME280;26317;44.894;20.286;2023-09-30T13:55:43;101116.81;;;27.22;33.86